sensor_id;sensor_type;location;lat;lon;timestamp;P1;durP1;ratioP1;P2;durP2;ratioP2
39898;SDS011;25571;47.876;10.642;2023-04-25T00:01:18;2.22;;;1.63;;
39898;SDS011;25571;47.876;10.642;2023-04-25T00:03:45;1.75;;;1.40;;
39898;SDS011;25571;47.876;10.642;2023-04-25T00:06:11;2.30;;;1.50;;
39898;SDS011;25571;47.876;10.642;2023-04-25T00:08:37;1.27;;;1.17;;
39898;SDS011;25571;47.876;10.642;2023-04-25T00:11:02;3.10;;;1.60;;
39898;SDS011;25571;47.876;10.642;2023-04-25T00:13:28;2.08;;;1.60;;
39898;SDS011;25571;47.876;10.642;2023-04-25T00:15:54;1.70;;;1.60;;
39898;SDS011;25571;47.876;10.642;2023-04-25T00:18:21;1.45;;;1.30;;
39898;SDS011;25571;47.876;10.642;2023-04-25T00:20:46;1.77;;;1.23;;
39898;SDS011;25571;47.876;10.642;2023-04-25T00:23:13;2.30;;;1.52;;
39898;SDS011;25571;47.876;10.642;2023-04-25T00:25:45;1.95;;;1.30;;
39898;SDS011;25571;47.876;10.642;2023-04-25T00:28:14;1.75;;;1.63;;
39898;SDS011;25571;47.876;10.642;2023-04-25T00:30:40;1.60;;;1.50;;
39898;SDS011;25571;47.876;10.642;2023-04-25T00:33:06;1.60;;;1.50;;
39898;SDS011;25571;47.876;10.642;2023-04-25T00:35:32;1.75;;;1.55;;
39898;SDS011;25571;47.876;10.642;2023-04-25T00:37:58;4.03;;;1.48;;
39898;SDS011;25571;47.876;10.642;2023-04-25T00:40:24;2.67;;;1.80;;
39898;SDS011;25571;47.876;10.642;2023-04-25T00:42:51;1.50;;;1.40;;
39898;SDS011;25571;47.876;10.642;2023-04-25T00:45:17;1.60;;;1.50;;
39898;SDS011;25571;47.876;10.642;2023-04-25T00:47:44;4.47;;;1.40;;
39898;SDS011;25571;47.876;10.642;2023-04-25T00:50:10;1.73;;;1.30;;
39898;SDS011;25571;47.876;10.642;2023-04-25T00:52:40;2.78;;;1.70;;
39898;SDS011;25571;47.876;10.642;2023-04-25T00:55:08;1.90;;;1.50;;
39898;SDS011;25571;47.876;10.642;2023-04-25T00:57:35;1.92;;;1.48;;
39898;SDS011;25571;47.876;10.642;2023-04-25T01:00:01;1.92;;;1.67;;
39898;SDS011;25571;47.876;10.642;2023-04-25T01:02:28;1.85;;;1.20;;
39898;SDS011;25571;47.876;10.642;2023-04-25T01:04:54;3.22;;;1.50;;
39898;SDS011;25571;47.876;10.642;2023-04-25T01:07:20;1.77;;;1.40;;
39898;SDS011;25571;47.876;10.642;2023-04-25T01:09:46;2.10;;;1.20;;
39898;SDS011;25571;47.876;10.642;2023-04-25T01:12:12;3.03;;;1.77;;
39898;SDS011;25571;47.876;10.642;2023-04-25T01:14:37;2.17;;;1.30;;
39898;SDS011;25571;47.876;10.642;2023-04-25T01:17:03;1.58;;;1.30;;
39898;SDS011;25571;47.876;10.642;2023-04-25T01:19:29;2.05;;;1.83;;
39898;SDS011;25571;47.876;10.642;2023-04-25T01:21:55;1.42;;;1.33;;
39898;SDS011;25571;47.876;10.642;2023-04-25T01:24:21;2.15;;;1.58;;
39898;SDS011;25571;47.876;10.642;2023-04-25T01:26:47;3.75;;;1.60;;
39898;SDS011;25571;47.876;10.642;2023-04-25T01:29:20;1.92;;;1.73;;
39898;SDS011;25571;47.876;10.642;2023-04-25T01:31:45;2.08;;;1.58;;
39898;SDS011;25571;47.876;10.642;2023-04-25T01:34:12;1.95;;;1.70;;
39898;SDS011;25571;47.876;10.642;2023-04-25T01:36:38;3.83;;;1.90;;
39898;SDS011;25571;47.876;10.642;2023-04-25T01:39:04;2.40;;;1.55;;
39898;SDS011;25571;47.876;10.642;2023-04-25T01:41:31;2.47;;;1.52;;
39898;SDS011;25571;47.876;10.642;2023-04-25T01:43:56;2.03;;;1.60;;
39898;SDS011;25571;47.876;10.642;2023-04-25T01:46:22;3.33;;;1.90;;
39898;SDS011;25571;47.876;10.642;2023-04-25T01:48:48;3.20;;;2.10;;
39898;SDS011;25571;47.876;10.642;2023-04-25T01:51:13;2.40;;;2.03;;
39898;SDS011;25571;47.876;10.642;2023-04-25T01:53:40;4.95;;;1.35;;
39898;SDS011;25571;47.876;10.642;2023-04-25T01:56:06;3.25;;;1.98;;
39898;SDS011;25571;47.876;10.642;2023-04-25T01:58:31;2.97;;;1.50;;
39898;SDS011;25571;47.876;10.642;2023-04-25T02:00:57;3.33;;;2.08;;
39898;SDS011;25571;47.876;10.642;2023-04-25T02:03:23;5.18;;;1.75;;
39898;SDS011;25571;47.876;10.642;2023-04-25T02:05:48;3.60;;;1.88;;
39898;SDS011;25571;47.876;10.642;2023-04-25T02:08:15;2.35;;;1.80;;
39898;SDS011;25571;47.876;10.642;2023-04-25T02:10:42;2.92;;;1.75;;
39898;SDS011;25571;47.876;10.642;2023-04-25T02:13:07;1.63;;;1.50;;
39898;SDS011;25571;47.876;10.642;2023-04-25T02:15:33;2.70;;;1.73;;
39898;SDS011;25571;47.876;10.642;2023-04-25T02:17:59;1.95;;;1.63;;
39898;SDS011;25571;47.876;10.642;2023-04-25T02:20:25;2.17;;;1.50;;
39898;SDS011;25571;47.876;10.642;2023-04-25T02:22:51;2.53;;;1.35;;
39898;SDS011;25571;47.876;10.642;2023-04-25T02:25:17;3.35;;;1.90;;
39898;SDS011;25571;47.876;10.642;2023-04-25T02:27:46;2.78;;;1.50;;
39898;SDS011;25571;47.876;10.642;2023-04-25T02:30:12;2.45;;;1.35;;
39898;SDS011;25571;47.876;10.642;2023-04-25T02:32:38;1.55;;;1.30;;
39898;SDS011;25571;47.876;10.642;2023-04-25T02:35:04;4.18;;;1.58;;
39898;SDS011;25571;47.876;10.642;2023-04-25T02:37:31;2.45;;;1.40;;
39898;SDS011;25571;47.876;10.642;2023-04-25T02:40:00;2.20;;;1.27;;
39898;SDS011;25571;47.876;10.642;2023-04-25T02:42:28;2.15;;;1.48;;
39898;SDS011;25571;47.876;10.642;2023-04-25T02:44:53;2.22;;;1.40;;
39898;SDS011;25571;47.876;10.642;2023-04-25T02:47:19;2.08;;;1.58;;
39898;SDS011;25571;47.876;10.642;2023-04-25T02:49:44;2.38;;;1.20;;
39898;SDS011;25571;47.876;10.642;2023-04-25T02:52:11;2.20;;;1.45;;
39898;SDS011;25571;47.876;10.642;2023-04-25T02:54:36;1.67;;;1.27;;
39898;SDS011;25571;47.876;10.642;2023-04-25T02:57:02;3.70;;;1.42;;
39898;SDS011;25571;47.876;10.642;2023-04-25T02:59:28;3.60;;;1.58;;
39898;SDS011;25571;47.876;10.642;2023-04-25T03:01:54;2.10;;;1.23;;
39898;SDS011;25571;47.876;10.642;2023-04-25T03:04:19;2.72;;;1.48;;
39898;SDS011;25571;47.876;10.642;2023-04-25T03:06:45;2.55;;;1.98;;
39898;SDS011;25571;47.876;10.642;2023-04-25T03:09:11;1.35;;;1.20;;
39898;SDS011;25571;47.876;10.642;2023-04-25T03:11:38;2.00;;;1.23;;
39898;SDS011;25571;47.876;10.642;2023-04-25T03:14:04;1.63;;;1.30;;
39898;SDS011;25571;47.876;10.642;2023-04-25T03:16:29;1.48;;;1.13;;
39898;SDS011;25571;47.876;10.642;2023-04-25T03:18:55;1.70;;;1.48;;
39898;SDS011;25571;47.876;10.642;2023-04-25T03:21:21;2.67;;;1.50;;
39898;SDS011;25571;47.876;10.642;2023-04-25T03:23:47;1.20;;;1.10;;
39898;SDS011;25571;47.876;10.642;2023-04-25T03:26:13;2.63;;;1.25;;
39898;SDS011;25571;47.876;10.642;2023-04-25T03:28:39;1.48;;;1.30;;
39898;SDS011;25571;47.876;10.642;2023-04-25T03:31:05;2.83;;;2.08;;
39898;SDS011;25571;47.876;10.642;2023-04-25T03:33:30;2.45;;;2.05;;
39898;SDS011;25571;47.876;10.642;2023-04-25T03:35:56;3.60;;;1.92;;
39898;SDS011;25571;47.876;10.642;2023-04-25T03:38:22;1.65;;;1.45;;
39898;SDS011;25571;47.876;10.642;2023-04-25T03:40:48;2.88;;;1.30;;
39898;SDS011;25571;47.876;10.642;2023-04-25T03:43:15;1.38;;;1.27;;
39898;SDS011;25571;47.876;10.642;2023-04-25T03:45:41;2.20;;;1.08;;
39898;SDS011;25571;47.876;10.642;2023-04-25T03:48:07;2.15;;;1.30;;
39898;SDS011;25571;47.876;10.642;2023-04-25T03:50:32;2.92;;;1.48;;
39898;SDS011;25571;47.876;10.642;2023-04-25T03:52:58;2.88;;;1.25;;
39898;SDS011;25571;47.876;10.642;2023-04-25T03:55:23;1.73;;;1.50;;
39898;SDS011;25571;47.876;10.642;2023-04-25T03:57:49;2.05;;;1.40;;
39898;SDS011;25571;47.876;10.642;2023-04-25T04:00:15;3.58;;;1.27;;
39898;SDS011;25571;47.876;10.642;2023-04-25T04:02:40;1.55;;;1.30;;
39898;SDS011;25571;47.876;10.642;2023-04-25T04:05:06;2.65;;;1.50;;
39898;SDS011;25571;47.876;10.642;2023-04-25T04:07:32;1.83;;;1.40;;
39898;SDS011;25571;47.876;10.642;2023-04-25T04:09:58;2.10;;;1.40;;
39898;SDS011;25571;47.876;10.642;2023-04-25T04:12:24;2.20;;;1.58;;
39898;SDS011;25571;47.876;10.642;2023-04-25T04:14:49;1.92;;;1.55;;
39898;SDS011;25571;47.876;10.642;2023-04-25T04:17:15;2.40;;;1.67;;
39898;SDS011;25571;47.876;10.642;2023-04-25T04:19:41;2.22;;;1.40;;
39898;SDS011;25571;47.876;10.642;2023-04-25T04:22:06;2.30;;;1.38;;
39898;SDS011;25571;47.876;10.642;2023-04-25T04:24:32;1.90;;;1.55;;
39898;SDS011;25571;47.876;10.642;2023-04-25T04:26:58;3.25;;;1.60;;
39898;SDS011;25571;47.876;10.642;2023-04-25T04:29:24;1.90;;;1.70;;
39898;SDS011;25571;47.876;10.642;2023-04-25T04:31:50;1.88;;;1.55;;
39898;SDS011;25571;47.876;10.642;2023-04-25T04:34:17;2.67;;;1.80;;
39898;SDS011;25571;47.876;10.642;2023-04-25T04:36:43;3.15;;;1.40;;
39898;SDS011;25571;47.876;10.642;2023-04-25T04:39:11;1.95;;;1.65;;
39898;SDS011;25571;47.876;10.642;2023-04-25T04:41:37;1.50;;;1.40;;
39898;SDS011;25571;47.876;10.642;2023-04-25T04:44:03;2.30;;;1.48;;
39898;SDS011;25571;47.876;10.642;2023-04-25T04:46:28;2.30;;;1.70;;
39898;SDS011;25571;47.876;10.642;2023-04-25T04:48:56;3.03;;;1.42;;
39898;SDS011;25571;47.876;10.642;2023-04-25T04:51:21;2.58;;;1.50;;
39898;SDS011;25571;47.876;10.642;2023-04-25T04:53:47;2.08;;;1.60;;
39898;SDS011;25571;47.876;10.642;2023-04-25T04:56:12;1.73;;;1.42;;
39898;SDS011;25571;47.876;10.642;2023-04-25T04:58:38;2.85;;;1.60;;
39898;SDS011;25571;47.876;10.642;2023-04-25T05:01:04;2.53;;;1.50;;
39898;SDS011;25571;47.876;10.642;2023-04-25T05:03:30;3.78;;;1.73;;
39898;SDS011;25571;47.876;10.642;2023-04-25T05:05:56;3.70;;;2.10;;
39898;SDS011;25571;47.876;10.642;2023-04-25T05:08:21;4.57;;;2.30;;
39898;SDS011;25571;47.876;10.642;2023-04-25T05:10:47;2.20;;;2.00;;
39898;SDS011;25571;47.876;10.642;2023-04-25T05:13:12;2.22;;;1.77;;
39898;SDS011;25571;47.876;10.642;2023-04-25T05:15:38;3.38;;;2.08;;
39898;SDS011;25571;47.876;10.642;2023-04-25T05:18:03;2.15;;;1.88;;
39898;SDS011;25571;47.876;10.642;2023-04-25T05:20:29;3.05;;;1.83;;
39898;SDS011;25571;47.876;10.642;2023-04-25T05:22:55;2.33;;;1.95;;
39898;SDS011;25571;47.876;10.642;2023-04-25T05:25:21;5.45;;;2.40;;
39898;SDS011;25571;47.876;10.642;2023-04-25T05:27:46;8.25;;;2.55;;
39898;SDS011;25571;47.876;10.642;2023-04-25T05:30:12;3.40;;;2.40;;
39898;SDS011;25571;47.876;10.642;2023-04-25T05:32:37;2.75;;;2.30;;
39898;SDS011;25571;47.876;10.642;2023-04-25T05:35:03;3.28;;;2.60;;
39898;SDS011;25571;47.876;10.642;2023-04-25T05:37:30;5.32;;;3.08;;
39898;SDS011;25571;47.876;10.642;2023-04-25T05:39:57;4.85;;;2.40;;
39898;SDS011;25571;47.876;10.642;2023-04-25T05:42:23;4.32;;;2.78;;
39898;SDS011;25571;47.876;10.642;2023-04-25T05:44:48;4.07;;;2.78;;
39898;SDS011;25571;47.876;10.642;2023-04-25T05:47:14;5.88;;;2.70;;
39898;SDS011;25571;47.876;10.642;2023-04-25T05:49:40;2.95;;;2.28;;
39898;SDS011;25571;47.876;10.642;2023-04-25T05:52:05;3.95;;;2.25;;
39898;SDS011;25571;47.876;10.642;2023-04-25T05:54:31;2.85;;;2.17;;
39898;SDS011;25571;47.876;10.642;2023-04-25T05:56:56;3.67;;;2.60;;
39898;SDS011;25571;47.876;10.642;2023-04-25T05:59:22;3.58;;;2.15;;
39898;SDS011;25571;47.876;10.642;2023-04-25T06:01:48;3.50;;;2.40;;
39898;SDS011;25571;47.876;10.642;2023-04-25T06:04:13;6.10;;;2.13;;
39898;SDS011;25571;47.876;10.642;2023-04-25T06:06:39;4.03;;;2.05;;
39898;SDS011;25571;47.876;10.642;2023-04-25T06:09:05;4.20;;;2.28;;
39898;SDS011;25571;47.876;10.642;2023-04-25T06:11:30;2.88;;;2.00;;
39898;SDS011;25571;47.876;10.642;2023-04-25T06:13:56;4.60;;;2.13;;
39898;SDS011;25571;47.876;10.642;2023-04-25T06:16:21;5.10;;;2.65;;
39898;SDS011;25571;47.876;10.642;2023-04-25T06:18:47;3.78;;;2.08;;
39898;SDS011;25571;47.876;10.642;2023-04-25T06:21:12;3.63;;;1.95;;
39898;SDS011;25571;47.876;10.642;2023-04-25T06:23:38;3.60;;;2.13;;
39898;SDS011;25571;47.876;10.642;2023-04-25T06:26:03;4.57;;;2.28;;
39898;SDS011;25571;47.876;10.642;2023-04-25T06:28:29;3.08;;;1.95;;
39898;SDS011;25571;47.876;10.642;2023-04-25T06:30:55;2.97;;;1.88;;
39898;SDS011;25571;47.876;10.642;2023-04-25T06:33:20;2.78;;;1.92;;
39898;SDS011;25571;47.876;10.642;2023-04-25T06:35:47;2.42;;;1.90;;
39898;SDS011;25571;47.876;10.642;2023-04-25T06:38:12;4.40;;;2.33;;
39898;SDS011;25571;47.876;10.642;2023-04-25T06:40:38;3.85;;;2.00;;
39898;SDS011;25571;47.876;10.642;2023-04-25T06:43:04;3.67;;;1.85;;
39898;SDS011;25571;47.876;10.642;2023-04-25T06:45:29;3.90;;;2.03;;
39898;SDS011;25571;47.876;10.642;2023-04-25T06:47:55;4.25;;;2.13;;
39898;SDS011;25571;47.876;10.642;2023-04-25T06:50:20;2.78;;;2.28;;
39898;SDS011;25571;47.876;10.642;2023-04-25T06:52:46;2.33;;;1.73;;
39898;SDS011;25571;47.876;10.642;2023-04-25T06:55:12;2.70;;;2.00;;
39898;SDS011;25571;47.876;10.642;2023-04-25T06:57:37;3.40;;;2.08;;
39898;SDS011;25571;47.876;10.642;2023-04-25T07:00:03;3.53;;;2.13;;
39898;SDS011;25571;47.876;10.642;2023-04-25T07:02:34;4.55;;;2.22;;
39898;SDS011;25571;47.876;10.642;2023-04-25T07:05:00;4.03;;;2.10;;
39898;SDS011;25571;47.876;10.642;2023-04-25T07:07:29;3.22;;;2.05;;
39898;SDS011;25571;47.876;10.642;2023-04-25T07:09:57;2.95;;;2.00;;
39898;SDS011;25571;47.876;10.642;2023-04-25T07:12:23;3.33;;;1.88;;
39898;SDS011;25571;47.876;10.642;2023-04-25T07:14:48;4.22;;;2.00;;
39898;SDS011;25571;47.876;10.642;2023-04-25T07:17:14;4.40;;;1.92;;
39898;SDS011;25571;47.876;10.642;2023-04-25T07:19:40;3.25;;;1.80;;
39898;SDS011;25571;47.876;10.642;2023-04-25T07:22:06;4.03;;;2.00;;
39898;SDS011;25571;47.876;10.642;2023-04-25T07:24:31;3.80;;;1.80;;
39898;SDS011;25571;47.876;10.642;2023-04-25T07:26:57;6.20;;;2.25;;
39898;SDS011;25571;47.876;10.642;2023-04-25T07:29:23;5.13;;;1.83;;
39898;SDS011;25571;47.876;10.642;2023-04-25T07:31:49;2.58;;;1.75;;
39898;SDS011;25571;47.876;10.642;2023-04-25T07:34:14;3.47;;;1.38;;
39898;SDS011;25571;47.876;10.642;2023-04-25T07:36:40;1.90;;;1.33;;
39898;SDS011;25571;47.876;10.642;2023-04-25T07:39:06;2.90;;;2.13;;
39898;SDS011;25571;47.876;10.642;2023-04-25T07:41:34;2.22;;;1.63;;
39898;SDS011;25571;47.876;10.642;2023-04-25T07:43:59;2.67;;;1.67;;
39898;SDS011;25571;47.876;10.642;2023-04-25T07:46:25;2.00;;;1.63;;
39898;SDS011;25571;47.876;10.642;2023-04-25T07:48:51;2.03;;;1.40;;
39898;SDS011;25571;47.876;10.642;2023-04-25T07:51:16;2.33;;;1.70;;
39898;SDS011;25571;47.876;10.642;2023-04-25T07:53:44;3.08;;;1.10;;
39898;SDS011;25571;47.876;10.642;2023-04-25T07:56:10;3.15;;;1.52;;
39898;SDS011;25571;47.876;10.642;2023-04-25T07:58:36;2.25;;;1.13;;
39898;SDS011;25571;47.876;10.642;2023-04-25T08:01:02;1.45;;;1.02;;
39898;SDS011;25571;47.876;10.642;2023-04-25T08:03:28;2.58;;;1.25;;
39898;SDS011;25571;47.876;10.642;2023-04-25T08:05:53;3.78;;;1.38;;
39898;SDS011;25571;47.876;10.642;2023-04-25T08:08:19;2.42;;;1.30;;
39898;SDS011;25571;47.876;10.642;2023-04-25T08:10:44;2.95;;;0.90;;
39898;SDS011;25571;47.876;10.642;2023-04-25T08:13:10;2.25;;;0.98;;
39898;SDS011;25571;47.876;10.642;2023-04-25T08:15:35;1.52;;;0.90;;
39898;SDS011;25571;47.876;10.642;2023-04-25T08:18:01;1.52;;;1.02;;
39898;SDS011;25571;47.876;10.642;2023-04-25T08:20:27;1.77;;;1.10;;
39898;SDS011;25571;47.876;10.642;2023-04-25T08:22:52;2.00;;;1.00;;
39898;SDS011;25571;47.876;10.642;2023-04-25T08:25:18;1.77;;;0.85;;
39898;SDS011;25571;47.876;10.642;2023-04-25T08:27:43;1.50;;;1.35;;
39898;SDS011;25571;47.876;10.642;2023-04-25T08:30:09;2.08;;;1.20;;
39898;SDS011;25571;47.876;10.642;2023-04-25T08:32:35;1.88;;;0.90;;
39898;SDS011;25571;47.876;10.642;2023-04-25T08:35:03;1.33;;;1.00;;
39898;SDS011;25571;47.876;10.642;2023-04-25T08:37:29;2.13;;;0.90;;
39898;SDS011;25571;47.876;10.642;2023-04-25T08:39:54;1.88;;;0.90;;
39898;SDS011;25571;47.876;10.642;2023-04-25T08:42:21;1.75;;;0.90;;
39898;SDS011;25571;47.876;10.642;2023-04-25T08:44:48;3.25;;;1.00;;
39898;SDS011;25571;47.876;10.642;2023-04-25T08:47:14;1.17;;;0.90;;
39898;SDS011;25571;47.876;10.642;2023-04-25T08:49:40;3.70;;;1.30;;
39898;SDS011;25571;47.876;10.642;2023-04-25T08:52:10;1.70;;;1.00;;
39898;SDS011;25571;47.876;10.642;2023-04-25T08:54:41;3.70;;;1.10;;
39898;SDS011;25571;47.876;10.642;2023-04-25T08:57:09;1.27;;;0.90;;
39898;SDS011;25571;47.876;10.642;2023-04-25T08:59:35;1.42;;;0.90;;
39898;SDS011;25571;47.876;10.642;2023-04-25T09:02:03;2.70;;;1.23;;
39898;SDS011;25571;47.876;10.642;2023-04-25T09:04:31;2.30;;;1.08;;
39898;SDS011;25571;47.876;10.642;2023-04-25T09:06:57;2.55;;;0.88;;
39898;SDS011;25571;47.876;10.642;2023-04-25T09:09:23;1.90;;;1.13;;
39898;SDS011;25571;47.876;10.642;2023-04-25T09:11:49;1.25;;;0.75;;
39898;SDS011;25571;47.876;10.642;2023-04-25T09:14:16;1.80;;;1.00;;
39898;SDS011;25571;47.876;10.642;2023-04-25T09:16:56;3.08;;;1.13;;
39898;SDS011;25571;47.876;10.642;2023-04-25T09:19:29;3.17;;;1.40;;
39898;SDS011;25571;47.876;10.642;2023-04-25T09:22:04;1.90;;;1.20;;
39898;SDS011;25571;47.876;10.642;2023-04-25T09:24:40;2.88;;;1.27;;
39898;SDS011;25571;47.876;10.642;2023-04-25T09:27:12;1.50;;;1.30;;
39898;SDS011;25571;47.876;10.642;2023-04-25T09:29:42;2.75;;;1.33;;
39898;SDS011;25571;47.876;10.642;2023-04-25T09:32:21;4.28;;;1.20;;
39898;SDS011;25571;47.876;10.642;2023-04-25T09:34:50;2.50;;;1.20;;
39898;SDS011;25571;47.876;10.642;2023-04-25T09:37:17;1.35;;;0.98;;
39898;SDS011;25571;47.876;10.642;2023-04-25T09:39:45;1.33;;;1.02;;
39898;SDS011;25571;47.876;10.642;2023-04-25T09:42:15;1.50;;;0.85;;
39898;SDS011;25571;47.876;10.642;2023-04-25T09:44:42;1.75;;;0.85;;
39898;SDS011;25571;47.876;10.642;2023-04-25T09:47:10;2.60;;;1.20;;
39898;SDS011;25571;47.876;10.642;2023-04-25T09:49:38;1.75;;;0.75;;
39898;SDS011;25571;47.876;10.642;2023-04-25T09:52:08;1.52;;;0.93;;
39898;SDS011;25571;47.876;10.642;2023-04-25T09:54:37;2.10;;;1.00;;
39898;SDS011;25571;47.876;10.642;2023-04-25T09:57:07;2.60;;;1.27;;
39898;SDS011;25571;47.876;10.642;2023-04-25T09:59:38;1.35;;;1.17;;
39898;SDS011;25571;47.876;10.642;2023-04-25T10:02:08;1.27;;;1.08;;
39898;SDS011;25571;47.876;10.642;2023-04-25T10:04:34;2.75;;;1.00;;
39898;SDS011;25571;47.876;10.642;2023-04-25T10:07:01;1.40;;;0.90;;
39898;SDS011;25571;47.876;10.642;2023-04-25T10:09:31;0.75;;;0.50;;
39898;SDS011;25571;47.876;10.642;2023-04-25T10:12:00;1.50;;;0.85;;
39898;SDS011;25571;47.876;10.642;2023-04-25T10:14:28;2.03;;;0.75;;
39898;SDS011;25571;47.876;10.642;2023-04-25T10:16:55;1.48;;;0.80;;
39898;SDS011;25571;47.876;10.642;2023-04-25T10:19:22;2.35;;;1.10;;
39898;SDS011;25571;47.876;10.642;2023-04-25T10:22:08;1.50;;;0.90;;
39898;SDS011;25571;47.876;10.642;2023-04-25T10:24:39;2.17;;;1.00;;
39898;SDS011;25571;47.876;10.642;2023-04-25T10:27:06;1.50;;;1.40;;
39898;SDS011;25571;47.876;10.642;2023-04-25T10:29:33;1.35;;;0.95;;
39898;SDS011;25571;47.876;10.642;2023-04-25T10:32:00;3.35;;;1.02;;
39898;SDS011;25571;47.876;10.642;2023-04-25T10:34:42;1.23;;;0.80;;
39898;SDS011;25571;47.876;10.642;2023-04-25T10:37:11;1.63;;;1.05;;
39898;SDS011;25571;47.876;10.642;2023-04-25T10:39:38;1.58;;;1.00;;
39898;SDS011;25571;47.876;10.642;2023-04-25T10:42:05;2.72;;;1.20;;
39898;SDS011;25571;47.876;10.642;2023-04-25T10:44:32;1.42;;;0.95;;
39898;SDS011;25571;47.876;10.642;2023-04-25T10:46:59;1.08;;;0.85;;
39898;SDS011;25571;47.876;10.642;2023-04-25T10:49:35;1.67;;;0.85;;
39898;SDS011;25571;47.876;10.642;2023-04-25T11:02:30;1.30;;;0.25;;
39898;SDS011;25571;47.876;10.642;2023-04-25T11:04:56;0.32;;;0.22;;
39898;SDS011;25571;47.876;10.642;2023-04-25T11:09:56;0.40;;;0.40;;
39898;SDS011;25571;47.876;10.642;2023-04-25T11:12:24;0.68;;;0.30;;
39898;SDS011;25571;47.876;10.642;2023-04-25T11:14:50;0.30;;;0.30;;
39898;SDS011;25571;47.876;10.642;2023-04-25T11:17:15;0.40;;;0.30;;
39898;SDS011;25571;47.876;10.642;2023-04-25T11:19:41;0.50;;;0.50;;
39898;SDS011;25571;47.876;10.642;2023-04-25T11:22:06;0.55;;;0.43;;
39898;SDS011;25571;47.876;10.642;2023-04-25T11:24:33;0.68;;;0.40;;
39898;SDS011;25571;47.876;10.642;2023-04-25T11:27:03;0.30;;;0.30;;
39898;SDS011;25571;47.876;10.642;2023-04-25T11:29:31;0.30;;;0.30;;
39898;SDS011;25571;47.876;10.642;2023-04-25T11:31:57;0.22;;;0.22;;
39898;SDS011;25571;47.876;10.642;2023-04-25T11:34:24;0.30;;;0.30;;
39898;SDS011;25571;47.876;10.642;2023-04-25T11:36:50;0.93;;;0.77;;
39898;SDS011;25571;47.876;10.642;2023-04-25T11:39:19;0.40;;;0.40;;
39898;SDS011;25571;47.876;10.642;2023-04-25T11:41:46;0.57;;;0.30;;
39898;SDS011;25571;47.876;10.642;2023-04-25T11:44:12;0.52;;;0.35;;
39898;SDS011;25571;47.876;10.642;2023-04-25T11:46:41;0.40;;;0.40;;
39898;SDS011;25571;47.876;10.642;2023-04-25T11:49:07;0.30;;;0.30;;
39898;SDS011;25571;47.876;10.642;2023-04-25T11:51:42;1.42;;;0.40;;
39898;SDS011;25571;47.876;10.642;2023-04-25T11:54:09;0.30;;;0.30;;
39898;SDS011;25571;47.876;10.642;2023-04-25T11:56:36;0.40;;;0.40;;
39898;SDS011;25571;47.876;10.642;2023-04-25T11:59:03;0.38;;;0.30;;
39898;SDS011;25571;47.876;10.642;2023-04-25T12:01:37;0.32;;;0.20;;
39898;SDS011;25571;47.876;10.642;2023-04-25T12:04:16;0.77;;;0.30;;
39898;SDS011;25571;47.876;10.642;2023-04-25T12:06:43;0.50;;;0.20;;
39898;SDS011;25571;47.876;10.642;2023-04-25T12:09:13;0.20;;;0.20;;
39898;SDS011;25571;47.876;10.642;2023-04-25T12:11:52;0.28;;;0.28;;
39898;SDS011;25571;47.876;10.642;2023-04-25T12:14:23;0.30;;;0.30;;
39898;SDS011;25571;47.876;10.642;2023-04-25T12:16:52;0.20;;;0.20;;
39898;SDS011;25571;47.876;10.642;2023-04-25T12:19:21;0.30;;;0.30;;
39898;SDS011;25571;47.876;10.642;2023-04-25T12:21:46;0.20;;;0.20;;
39898;SDS011;25571;47.876;10.642;2023-04-25T12:24:22;0.30;;;0.30;;
39898;SDS011;25571;47.876;10.642;2023-04-25T12:29:17;0.30;;;0.20;;
39898;SDS011;25571;47.876;10.642;2023-04-25T12:31:47;0.15;;;0.15;;
39898;SDS011;25571;47.876;10.642;2023-04-25T12:34:13;0.45;;;0.20;;
39898;SDS011;25571;47.876;10.642;2023-04-25T12:36:39;0.20;;;0.20;;
39898;SDS011;25571;47.876;10.642;2023-04-25T12:39:05;0.40;;;0.40;;
39898;SDS011;25571;47.876;10.642;2023-04-25T12:41:31;0.30;;;0.30;;
39898;SDS011;25571;47.876;10.642;2023-04-25T12:43:57;0.30;;;0.20;;
39898;SDS011;25571;47.876;10.642;2023-04-25T12:46:23;0.30;;;0.22;;
39898;SDS011;25571;47.876;10.642;2023-04-25T12:48:49;0.20;;;0.20;;
39898;SDS011;25571;47.876;10.642;2023-04-25T12:51:15;0.30;;;0.30;;
39898;SDS011;25571;47.876;10.642;2023-04-25T12:53:40;0.47;;;0.40;;
39898;SDS011;25571;47.876;10.642;2023-04-25T12:56:07;1.00;;;0.70;;
39898;SDS011;25571;47.876;10.642;2023-04-25T12:58:33;2.22;;;1.23;;
39898;SDS011;25571;47.876;10.642;2023-04-25T13:00:59;1.00;;;0.88;;
39898;SDS011;25571;47.876;10.642;2023-04-25T13:03:25;0.73;;;0.73;;
39898;SDS011;25571;47.876;10.642;2023-04-25T13:05:50;0.60;;;0.50;;
39898;SDS011;25571;47.876;10.642;2023-04-25T13:08:17;0.50;;;0.50;;
39898;SDS011;25571;47.876;10.642;2023-04-25T13:10:43;0.45;;;0.45;;
39898;SDS011;25571;47.876;10.642;2023-04-25T13:13:09;0.73;;;0.50;;
39898;SDS011;25571;47.876;10.642;2023-04-25T13:15:35;0.85;;;0.60;;
39898;SDS011;25571;47.876;10.642;2023-04-25T13:18:01;1.90;;;0.90;;
39898;SDS011;25571;47.876;10.642;2023-04-25T13:20:28;1.48;;;0.73;;
39898;SDS011;25571;47.876;10.642;2023-04-25T13:22:53;0.60;;;0.60;;
39898;SDS011;25571;47.876;10.642;2023-04-25T13:25:20;1.77;;;0.60;;
39898;SDS011;25571;47.876;10.642;2023-04-25T13:27:46;3.00;;;0.70;;
39898;SDS011;25571;47.876;10.642;2023-04-25T13:30:12;1.63;;;0.75;;
39898;SDS011;25571;47.876;10.642;2023-04-25T13:32:38;1.95;;;0.52;;
39898;SDS011;25571;47.876;10.642;2023-04-25T13:35:07;1.67;;;0.70;;
39898;SDS011;25571;47.876;10.642;2023-04-25T13:37:35;1.20;;;0.60;;
39898;SDS011;25571;47.876;10.642;2023-04-25T13:40:01;1.38;;;0.55;;
39898;SDS011;25571;47.876;10.642;2023-04-25T13:42:30;1.40;;;1.20;;
39898;SDS011;25571;47.876;10.642;2023-04-25T13:44:56;1.13;;;0.80;;
39898;SDS011;25571;47.876;10.642;2023-04-25T13:47:22;1.27;;;0.88;;
39898;SDS011;25571;47.876;10.642;2023-04-25T13:49:48;1.58;;;0.90;;
39898;SDS011;25571;47.876;10.642;2023-04-25T13:52:14;0.80;;;0.77;;
39898;SDS011;25571;47.876;10.642;2023-04-25T13:54:40;0.88;;;0.75;;
39898;SDS011;25571;47.876;10.642;2023-04-25T13:57:05;0.85;;;0.85;;
39898;SDS011;25571;47.876;10.642;2023-04-25T13:59:31;1.23;;;1.05;;
39898;SDS011;25571;47.876;10.642;2023-04-25T14:01:57;0.98;;;0.80;;
39898;SDS011;25571;47.876;10.642;2023-04-25T14:04:23;1.83;;;0.98;;
39898;SDS011;25571;47.876;10.642;2023-04-25T14:06:50;2.13;;;0.82;;
39898;SDS011;25571;47.876;10.642;2023-04-25T14:09:16;0.80;;;0.80;;
39898;SDS011;25571;47.876;10.642;2023-04-25T14:11:42;1.38;;;0.80;;
39898;SDS011;25571;47.876;10.642;2023-04-25T14:14:08;0.60;;;0.60;;
39898;SDS011;25571;47.876;10.642;2023-04-25T14:16:34;1.00;;;0.90;;
39898;SDS011;25571;47.876;10.642;2023-04-25T14:19:00;0.70;;;0.60;;
39898;SDS011;25571;47.876;10.642;2023-04-25T14:21:26;1.13;;;0.90;;
39898;SDS011;25571;47.876;10.642;2023-04-25T14:23:53;3.88;;;0.82;;
39898;SDS011;25571;47.876;10.642;2023-04-25T14:26:19;1.02;;;0.90;;
39898;SDS011;25571;47.876;10.642;2023-04-25T14:28:44;0.63;;;0.52;;
39898;SDS011;25571;47.876;10.642;2023-04-25T14:31:10;0.85;;;0.80;;
39898;SDS011;25571;47.876;10.642;2023-04-25T14:33:35;1.58;;;0.95;;
39898;SDS011;25571;47.876;10.642;2023-04-25T14:36:04;0.98;;;0.80;;
39898;SDS011;25571;47.876;10.642;2023-04-25T14:38:30;1.02;;;0.85;;
39898;SDS011;25571;47.876;10.642;2023-04-25T14:40:56;0.82;;;0.75;;
39898;SDS011;25571;47.876;10.642;2023-04-25T14:43:21;2.58;;;1.20;;
39898;SDS011;25571;47.876;10.642;2023-04-25T14:45:47;1.40;;;0.85;;